sensor_id;sensor_type;location;lat;lon;timestamp;pressure;altitude;pressure_sealevel;temperature;humidity
63306;BME280;50735;52.060;1.248;2023-04-08T00:02:05;102143.13;;;6.97;47.13
63306;BME280;50735;52.060;1.248;2023-04-08T00:04:37;102142.65;;;7.35;47.25
63306;BME280;50735;52.060;1.248;2023-04-08T00:07:08;102140.09;;;7.15;47.48
63306;BME280;50735;52.060;1.248;2023-04-08T00:09:40;102138.39;;;7.34;47.57
63306;BME280;50735;52.060;1.248;2023-04-08T00:12:12;102140.28;;;7.33;47.50
63306;BME280;50735;52.060;1.248;2023-04-08T00:14:44;102143.11;;;7.31;47.50
63306;BME280;50735;52.060;1.248;2023-04-08T00:17:15;102141.82;;;7.10;47.60
63306;BME280;50735;52.060;1.248;2023-04-08T00:19:47;102142.81;;;7.08;47.54
63306;BME280;50735;52.060;1.248;2023-04-08T00:22:19;102139.19;;;7.23;47.51
63306;BME280;50735;52.060;1.248;2023-04-08T00:24:50;102136.00;;;7.20;47.75
63306;BME280;50735;52.060;1.248;2023-04-08T00:27:22;102133.62;;;6.81;47.94
63306;BME280;50735;52.060;1.248;2023-04-08T00:29:54;102131.07;;;7.20;48.07
63306;BME280;50735;52.060;1.248;2023-04-08T00:32:26;102132.34;;;7.18;48.05
63306;BME280;50735;52.060;1.248;2023-04-08T00:34:57;102131.04;;;7.17;47.93
63306;BME280;50735;52.060;1.248;2023-04-08T00:37:30;102128.28;;;7.13;47.87
63306;BME280;50735;52.060;1.248;2023-04-08T00:40:02;102127.36;;;7.10;47.89
63306;BME280;50735;52.060;1.248;2023-04-08T00:42:33;102127.06;;;7.07;47.83
63306;BME280;50735;52.060;1.248;2023-04-08T00:45:07;102126.94;;;6.99;47.77
63306;BME280;50735;52.060;1.248;2023-04-08T00:47:39;102127.58;;;6.78;48.26
63306;BME280;50735;52.060;1.248;2023-04-08T00:50:11;102124.34;;;6.91;48.14
63306;BME280;50735;52.060;1.248;2023-04-08T00:52:43;102127.19;;;6.87;48.01
63306;BME280;50735;52.060;1.248;2023-04-08T00:55:15;102132.20;;;6.84;48.20
63306;BME280;50735;52.060;1.248;2023-04-08T00:57:47;102132.77;;;7.01;48.10
63306;BME280;50735;52.060;1.248;2023-04-08T01:00:19;102127.94;;;6.76;48.23
63306;BME280;50735;52.060;1.248;2023-04-08T01:02:59;102128.68;;;6.75;48.19
63306;BME280;50735;52.060;1.248;2023-04-08T01:05:39;102128.37;;;6.72;48.24
63306;BME280;50735;52.060;1.248;2023-04-08T01:08:16;102129.06;;;6.67;48.22
63306;BME280;50735;52.060;1.248;2023-04-08T01:10:50;102132.65;;;6.79;48.49
63306;BME280;50735;52.060;1.248;2023-04-08T01:13:25;102132.92;;;6.57;48.47
63306;BME280;50735;52.060;1.248;2023-04-08T01:15:59;102134.06;;;6.37;48.38
63306;BME280;50735;52.060;1.248;2023-04-08T01:18:33;102134.44;;;6.49;48.32
63306;BME280;50735;52.060;1.248;2023-04-08T01:21:06;102133.36;;;6.61;48.36
63306;BME280;50735;52.060;1.248;2023-04-08T01:23:43;102130.52;;;6.37;48.37
63306;BME280;50735;52.060;1.248;2023-04-08T01:26:21;102130.46;;;6.30;48.42
63306;BME280;50735;52.060;1.248;2023-04-08T01:28:56;102133.78;;;6.44;48.67
63306;BME280;50735;52.060;1.248;2023-04-08T01:31:30;102134.98;;;6.19;48.75
63306;BME280;50735;52.060;1.248;2023-04-08T01:34:04;102138.12;;;6.49;48.51
63306;BME280;50735;52.060;1.248;2023-04-08T01:36:37;102140.02;;;6.23;48.48
63306;BME280;50735;52.060;1.248;2023-04-08T01:39:11;102142.87;;;6.18;48.66
63306;BME280;50735;52.060;1.248;2023-04-08T01:41:45;102144.02;;;5.95;48.56
63306;BME280;50735;52.060;1.248;2023-04-08T01:44:17;102146.23;;;6.11;48.76
63306;BME280;50735;52.060;1.248;2023-04-08T01:46:50;102147.65;;;6.28;49.23
63306;BME280;50735;52.060;1.248;2023-04-08T01:49:23;102150.77;;;6.26;49.17
63306;BME280;50735;52.060;1.248;2023-04-08T01:51:57;102153.46;;;6.03;49.14
63306;BME280;50735;52.060;1.248;2023-04-08T01:54:31;102155.78;;;6.19;49.13
63306;BME280;50735;52.060;1.248;2023-04-08T01:57:04;102154.75;;;6.13;49.27
63306;BME280;50735;52.060;1.248;2023-04-08T01:59:39;102154.77;;;6.10;49.18
63306;BME280;50735;52.060;1.248;2023-04-08T02:02:12;102152.88;;;5.84;49.16
63306;BME280;50735;52.060;1.248;2023-04-08T02:04:45;102152.20;;;5.81;49.27
63306;BME280;50735;52.060;1.248;2023-04-08T02:07:17;102152.52;;;6.01;49.42
63306;BME280;50735;52.060;1.248;2023-04-08T02:09:50;102151.81;;;6.00;49.76
63306;BME280;50735;52.060;1.248;2023-04-08T02:12:22;102151.61;;;6.00;49.61
63306;BME280;50735;52.060;1.248;2023-04-08T02:14:54;102150.11;;;5.98;49.76
63306;BME280;50735;52.060;1.248;2023-04-08T02:17:32;102150.17;;;5.95;49.70
63306;BME280;50735;52.060;1.248;2023-04-08T02:20:06;102153.05;;;5.69;49.73
63306;BME280;50735;52.060;1.248;2023-04-08T02:22:43;102153.61;;;5.91;49.68
63306;BME280;50735;52.060;1.248;2023-04-08T02:25:21;102152.60;;;5.87;49.72
63306;BME280;50735;52.060;1.248;2023-04-08T02:27:55;102151.99;;;5.61;49.60
63306;BME280;50735;52.060;1.248;2023-04-08T02:30:28;102150.87;;;5.78;49.82
63306;BME280;50735;52.060;1.248;2023-04-08T02:33:03;102151.48;;;5.76;49.92
63306;BME280;50735;52.060;1.248;2023-04-08T02:35:36;102152.32;;;5.75;49.89
63306;BME280;50735;52.060;1.248;2023-04-08T02:38:09;102154.47;;;5.92;49.91
63306;BME280;50735;52.060;1.248;2023-04-08T02:40:41;102158.25;;;5.73;50.07
63306;BME280;50735;52.060;1.248;2023-04-08T02:43:13;102158.51;;;5.75;50.24
63306;BME280;50735;52.060;1.248;2023-04-08T02:45:45;102160.18;;;5.54;50.28
63306;BME280;50735;52.060;1.248;2023-04-08T02:48:17;102164.68;;;5.51;50.21
63306;BME280;50735;52.060;1.248;2023-04-08T02:50:50;102166.44;;;5.71;50.28
63306;BME280;50735;52.060;1.248;2023-04-08T02:53:22;102171.58;;;5.67;50.32
63306;BME280;50735;52.060;1.248;2023-04-08T02:55:54;102170.75;;;5.66;50.47
63306;BME280;50735;52.060;1.248;2023-04-08T02:58:26;102172.13;;;5.65;50.54
63306;BME280;50735;52.060;1.248;2023-04-08T03:00:58;102174.08;;;5.63;50.72
63306;BME280;50735;52.060;1.248;2023-04-08T03:03:30;102174.14;;;5.41;51.02
63306;BME280;50735;52.060;1.248;2023-04-08T03:06:02;102175.20;;;5.62;50.90
63306;BME280;50735;52.060;1.248;2023-04-08T03:08:34;102177.41;;;5.58;50.91
63306;BME280;50735;52.060;1.248;2023-04-08T03:11:07;102180.66;;;5.76;51.00
63306;BME280;50735;52.060;1.248;2023-04-08T03:13:39;102180.89;;;5.52;50.73
63306;BME280;50735;52.060;1.248;2023-04-08T03:16:11;102186.06;;;5.47;50.72
63306;BME280;50735;52.060;1.248;2023-04-08T03:18:43;102186.38;;;5.41;50.65
63306;BME280;50735;52.060;1.248;2023-04-08T03:21:15;102190.40;;;5.39;50.74
63306;BME280;50735;52.060;1.248;2023-04-08T03:23:47;102193.18;;;5.78;50.63
63306;BME280;50735;52.060;1.248;2023-04-08T03:26:19;102195.97;;;5.76;50.93
63306;BME280;50735;52.060;1.248;2023-04-08T03:28:51;102197.02;;;5.34;50.95
63306;BME280;50735;52.060;1.248;2023-04-08T03:31:23;102202.09;;;5.37;51.26
63306;BME280;50735;52.060;1.248;2023-04-08T03:33:55;102204.44;;;5.38;51.38
63306;BME280;50735;52.060;1.248;2023-04-08T03:36:27;102202.93;;;5.40;51.19
63306;BME280;50735;52.060;1.248;2023-04-08T03:38:58;102202.87;;;5.38;51.21
63306;BME280;50735;52.060;1.248;2023-04-08T03:41:30;102206.35;;;5.37;51.34
63306;BME280;50735;52.060;1.248;2023-04-08T03:44:03;102206.96;;;5.37;51.32
63306;BME280;50735;52.060;1.248;2023-04-08T03:46:35;102206.66;;;5.75;51.43
63306;BME280;50735;52.060;1.248;2023-04-08T03:49:07;102205.36;;;5.36;51.38
63306;BME280;50735;52.060;1.248;2023-04-08T03:51:39;102208.61;;;5.53;51.16
63306;BME280;50735;52.060;1.248;2023-04-08T03:54:11;102217.46;;;5.28;51.43
63306;BME280;50735;52.060;1.248;2023-04-08T03:56:43;102218.07;;;5.47;51.55
63306;BME280;50735;52.060;1.248;2023-04-08T03:59:15;102218.35;;;5.29;51.58
63306;BME280;50735;52.060;1.248;2023-04-08T04:01:47;102217.61;;;5.27;51.56
63306;BME280;50735;52.060;1.248;2023-04-08T04:04:19;102221.56;;;5.26;51.70
63306;BME280;50735;52.060;1.248;2023-04-08T04:06:50;102223.68;;;5.26;51.66
63306;BME280;50735;52.060;1.248;2023-04-08T04:09:22;102228.54;;;5.24;51.84
63306;BME280;50735;52.060;1.248;2023-04-08T04:11:54;102229.33;;;5.67;51.86
63306;BME280;50735;52.060;1.248;2023-04-08T04:14:26;102230.33;;;5.29;51.69
63306;BME280;50735;52.060;1.248;2023-04-08T04:16:58;102230.83;;;5.27;51.69
63306;BME280;50735;52.060;1.248;2023-04-08T04:19:30;102235.33;;;5.27;51.62
63306;BME280;50735;52.060;1.248;2023-04-08T04:22:02;102232.05;;;5.25;51.73
63306;BME280;50735;52.060;1.248;2023-04-08T04:24:34;102236.80;;;5.67;51.84
63306;BME280;50735;52.060;1.248;2023-04-08T04:27:06;102236.86;;;5.28;51.95
63306;BME280;50735;52.060;1.248;2023-04-08T04:29:37;102238.14;;;5.46;52.12
63306;BME280;50735;52.060;1.248;2023-04-08T04:32:10;102241.86;;;5.31;52.07
63306;BME280;50735;52.060;1.248;2023-04-08T04:34:42;102243.34;;;5.71;51.89
63306;BME280;50735;52.060;1.248;2023-04-08T04:37:14;102242.62;;;5.46;51.96
63306;BME280;50735;52.060;1.248;2023-04-08T04:39:46;102244.98;;;5.28;51.75
63306;BME280;50735;52.060;1.248;2023-04-08T04:42:18;102244.95;;;5.21;51.92
63306;BME280;50735;52.060;1.248;2023-04-08T04:44:50;102248.85;;;5.18;53.18
63306;BME280;50735;52.060;1.248;2023-04-08T04:47:21;102252.57;;;5.09;53.46
63306;BME280;50735;52.060;1.248;2023-04-08T04:49:53;102251.32;;;4.85;53.21
63306;BME280;50735;52.060;1.248;2023-04-08T04:52:25;102256.81;;;5.10;54.00
63306;BME280;50735;52.060;1.248;2023-04-08T04:54:57;102257.38;;;4.63;54.96
63306;BME280;50735;52.060;1.248;2023-04-08T04:57:29;102258.33;;;5.01;54.73
63306;BME280;50735;52.060;1.248;2023-04-08T05:00:01;102261.32;;;4.91;54.77
63306;BME280;50735;52.060;1.248;2023-04-08T05:02:34;102261.40;;;4.79;54.78
63306;BME280;50735;52.060;1.248;2023-04-08T05:05:07;102264.40;;;4.91;54.45
63306;BME280;50735;52.060;1.248;2023-04-08T05:07:39;102265.90;;;5.05;54.38
63306;BME280;50735;52.060;1.248;2023-04-08T05:10:10;102267.29;;;5.33;55.05
63306;BME280;50735;52.060;1.248;2023-04-08T05:12:42;102268.01;;;5.28;55.37
63306;BME280;50735;52.060;1.248;2023-04-08T05:15:14;102265.28;;;5.06;55.64
63306;BME280;50735;52.060;1.248;2023-04-08T05:17:46;102266.56;;;4.90;55.74
63306;BME280;50735;52.060;1.248;2023-04-08T05:20:18;102269.97;;;5.18;55.38
63306;BME280;50735;52.060;1.248;2023-04-08T05:22:50;102270.82;;;5.07;55.35
63306;BME280;50735;52.060;1.248;2023-04-08T05:25:22;102271.39;;;5.14;55.73
63306;BME280;50735;52.060;1.248;2023-04-08T05:27:55;102273.80;;;5.10;56.14
63306;BME280;50735;52.060;1.248;2023-04-08T05:30:27;102277.56;;;5.04;55.83
63306;BME280;50735;52.060;1.248;2023-04-08T05:32:58;102278.95;;;5.56;55.70
63306;BME280;50735;52.060;1.248;2023-04-08T05:35:30;102281.18;;;5.58;56.00
63306;BME280;50735;52.060;1.248;2023-04-08T05:38:02;102285.06;;;5.23;55.68
63306;BME280;50735;52.060;1.248;2023-04-08T05:40:34;102288.38;;;5.27;55.95
63306;BME280;50735;52.060;1.248;2023-04-08T05:43:05;102290.85;;;5.27;55.97
63306;BME280;50735;52.060;1.248;2023-04-08T05:45:37;102293.78;;;5.32;55.70
63306;BME280;50735;52.060;1.248;2023-04-08T05:48:09;102289.66;;;5.26;55.86
63306;BME280;50735;52.060;1.248;2023-04-08T05:50:41;102292.81;;;5.29;56.52
63306;BME280;50735;52.060;1.248;2023-04-08T05:53:13;102293.73;;;5.36;55.92
63306;BME280;50735;52.060;1.248;2023-04-08T05:55:45;102296.90;;;5.66;55.81
63306;BME280;50735;52.060;1.248;2023-04-08T05:58:17;102300.14;;;5.62;55.86
63306;BME280;50735;52.060;1.248;2023-04-08T06:00:49;102299.31;;;5.64;55.83
63306;BME280;50735;52.060;1.248;2023-04-08T06:03:21;102299.43;;;5.66;55.93
63306;BME280;50735;52.060;1.248;2023-04-08T06:05:52;102304.86;;;5.70;55.87
63306;BME280;50735;52.060;1.248;2023-04-08T06:08:24;102306.10;;;5.47;56.62
63306;BME280;50735;52.060;1.248;2023-04-08T06:10:56;102314.76;;;5.49;57.64
63306;BME280;50735;52.060;1.248;2023-04-08T06:13:28;102318.81;;;5.11;58.88
63306;BME280;50735;52.060;1.248;2023-04-08T06:16:09;102319.06;;;5.31;57.99
63306;BME280;50735;52.060;1.248;2023-04-08T06:18:42;102318.77;;;5.97;57.14
63306;BME280;50735;52.060;1.248;2023-04-08T06:21:14;102316.68;;;5.74;57.00
63306;BME280;50735;52.060;1.248;2023-04-08T06:23:45;102320.74;;;5.85;56.81
63306;BME280;50735;52.060;1.248;2023-04-08T06:26:17;102323.12;;;5.75;57.34
63306;BME280;50735;52.060;1.248;2023-04-08T06:28:49;102327.02;;;5.79;57.13
63306;BME280;50735;52.060;1.248;2023-04-08T06:31:21;102330.67;;;5.69;57.65
63306;BME280;50735;52.060;1.248;2023-04-08T06:33:53;102329.62;;;5.69;57.22
63306;BME280;50735;52.060;1.248;2023-04-08T06:36:25;102332.64;;;5.59;57.51
63306;BME280;50735;52.060;1.248;2023-04-08T06:38:57;102332.96;;;5.87;57.80
63306;BME280;50735;52.060;1.248;2023-04-08T06:41:29;102336.59;;;6.00;57.13
63306;BME280;50735;52.060;1.248;2023-04-08T06:44:01;102340.56;;;6.05;57.68
63306;BME280;50735;52.060;1.248;2023-04-08T06:46:33;102345.12;;;5.93;57.17
63306;BME280;50735;52.060;1.248;2023-04-08T06:49:05;102347.78;;;6.18;56.87
63306;BME280;50735;52.060;1.248;2023-04-08T06:51:37;102349.29;;;6.01;56.96
63306;BME280;50735;52.060;1.248;2023-04-08T06:54:09;102353.09;;;5.93;57.12
63306;BME280;50735;52.060;1.248;2023-04-08T06:56:41;102353.59;;;6.09;56.71
63306;BME280;50735;52.060;1.248;2023-04-08T06:59:13;102357.07;;;6.24;56.46
63306;BME280;50735;52.060;1.248;2023-04-08T07:01:44;102357.03;;;6.19;56.15
63306;BME280;50735;52.060;1.248;2023-04-08T07:04:16;102355.73;;;6.28;56.78
63306;BME280;50735;52.060;1.248;2023-04-08T07:06:48;102358.79;;;6.28;56.99
63306;BME280;50735;52.060;1.248;2023-04-08T07:09:20;102352.23;;;6.27;56.53
63306;BME280;50735;52.060;1.248;2023-04-08T07:11:52;102360.24;;;6.41;56.77
63306;BME280;50735;52.060;1.248;2023-04-08T07:14:24;102362.74;;;6.33;57.06
63306;BME280;50735;52.060;1.248;2023-04-08T07:16:56;102360.39;;;6.58;56.55
63306;BME280;50735;52.060;1.248;2023-04-08T07:19:28;102366.36;;;6.66;56.34
63306;BME280;50735;52.060;1.248;2023-04-08T07:22:00;102370.54;;;6.76;56.38
63306;BME280;50735;52.060;1.248;2023-04-08T07:24:32;102372.37;;;6.92;55.92
63306;BME280;50735;52.060;1.248;2023-04-08T07:27:04;102377.14;;;6.88;55.76
63306;BME280;50735;52.060;1.248;2023-04-08T07:29:35;102381.49;;;6.91;55.63
63306;BME280;50735;52.060;1.248;2023-04-08T07:32:07;102384.63;;;7.16;55.47
63306;BME280;50735;52.060;1.248;2023-04-08T07:34:39;102383.36;;;6.99;55.59
63306;BME280;50735;52.060;1.248;2023-04-08T07:37:11;102385.96;;;7.11;55.65
63306;BME280;50735;52.060;1.248;2023-04-08T07:39:43;102384.30;;;7.19;55.53
63306;BME280;50735;52.060;1.248;2023-04-08T07:42:14;102388.08;;;7.33;55.18
63306;BME280;50735;52.060;1.248;2023-04-08T07:44:46;102387.59;;;7.36;55.29
63306;BME280;50735;52.060;1.248;2023-04-08T07:47:18;102386.46;;;7.32;54.94
63306;BME280;50735;52.060;1.248;2023-04-08T07:49:50;102388.53;;;7.04;55.43
63306;BME280;50735;52.060;1.248;2023-04-08T07:52:22;102383.64;;;6.99;55.16
63306;BME280;50735;52.060;1.248;2023-04-08T07:54:54;102379.25;;;7.51;55.16
63306;BME280;50735;52.060;1.248;2023-04-08T07:57:25;102378.13;;;7.56;54.71
63306;BME280;50735;52.060;1.248;2023-04-08T07:59:57;102383.14;;;7.51;55.21
63306;BME280;50735;52.060;1.248;2023-04-08T08:02:29;102386.52;;;7.72;55.27
63306;BME280;50735;52.060;1.248;2023-04-08T08:05:01;102385.66;;;7.31;55.91
63306;BME280;50735;52.060;1.248;2023-04-08T08:07:32;102388.73;;;7.01;56.05
63306;BME280;50735;52.060;1.248;2023-04-08T08:10:05;102384.49;;;7.11;56.12
63306;BME280;50735;52.060;1.248;2023-04-08T08:12:37;102388.46;;;7.51;55.83
63306;BME280;50735;52.060;1.248;2023-04-08T08:15:10;102389.92;;;7.66;55.86
63306;BME280;50735;52.060;1.248;2023-04-08T08:17:41;102393.53;;;7.29;56.69
63306;BME280;50735;52.060;1.248;2023-04-08T08:20:13;102393.68;;;6.92;56.79
63306;BME280;50735;52.060;1.248;2023-04-08T08:22:45;102395.74;;;7.10;56.65
63306;BME280;50735;52.060;1.248;2023-04-08T08:25:17;102396.02;;;7.13;56.17
63306;BME280;50735;52.060;1.248;2023-04-08T08:27:49;102392.66;;;7.26;55.80
63306;BME280;50735;52.060;1.248;2023-04-08T08:30:20;102391.13;;;7.63;54.65
63306;BME280;50735;52.060;1.248;2023-04-08T08:32:53;102391.45;;;7.96;54.33
63306;BME280;50735;52.060;1.248;2023-04-08T08:35:24;102391.13;;;8.07;53.77
63306;BME280;50735;52.060;1.248;2023-04-08T08:37:56;102395.17;;;8.30;53.17
63306;BME280;50735;52.060;1.248;2023-04-08T08:40:28;102395.41;;;8.35;52.93
63306;BME280;50735;52.060;1.248;2023-04-08T08:43:00;102396.57;;;8.88;52.46
63306;BME280;50735;52.060;1.248;2023-04-08T08:45:32;102393.01;;;9.17;52.02
63306;BME280;50735;52.060;1.248;2023-04-08T08:48:05;102396.90;;;9.62;51.75
63306;BME280;50735;52.060;1.248;2023-04-08T08:50:37;102400.65;;;9.48;51.39
63306;BME280;50735;52.060;1.248;2023-04-08T08:53:08;102402.11;;;9.65;51.15
63306;BME280;50735;52.060;1.248;2023-04-08T08:55:40;102398.72;;;9.57;49.89
63306;BME280;50735;52.060;1.248;2023-04-08T08:58:12;102393.46;;;9.74;49.99
63306;BME280;50735;52.060;1.248;2023-04-08T09:00:44;102397.22;;;9.99;50.16
63306;BME280;50735;52.060;1.248;2023-04-08T09:03:17;102398.34;;;10.11;49.84
63306;BME280;50735;52.060;1.248;2023-04-08T09:05:50;102397.29;;;10.17;49.68
63306;BME280;50735;52.060;1.248;2023-04-08T09:08:24;102398.60;;;10.50;49.40
63306;BME280;50735;52.060;1.248;2023-04-08T09:11:11;102403.58;;;10.10;49.25
63306;BME280;50735;52.060;1.248;2023-04-08T09:13:44;102408.22;;;10.14;49.51
63306;BME280;50735;52.060;1.248;2023-04-08T09:16:17;102409.69;;;10.34;49.19
63306;BME280;50735;52.060;1.248;2023-04-08T09:18:50;102411.13;;;10.55;48.61
63306;BME280;50735;52.060;1.248;2023-04-08T09:21:22;102413.31;;;10.37;48.23
63306;BME280;50735;52.060;1.248;2023-04-08T09:23:54;102414.43;;;10.39;47.90
63306;BME280;50735;52.060;1.248;2023-04-08T09:26:26;102414.61;;;10.41;47.64
63306;BME280;50735;52.060;1.248;2023-04-08T09:28:59;102418.72;;;10.88;48.14
63306;BME280;50735;52.060;1.248;2023-04-08T09:31:33;102420.98;;;10.75;47.47
63306;BME280;50735;52.060;1.248;2023-04-08T09:34:09;102421.56;;;10.75;47.63
63306;BME280;50735;52.060;1.248;2023-04-08T09:36:41;102418.43;;;10.51;47.91
63306;BME280;50735;52.060;1.248;2023-04-08T09:39:13;102418.71;;;10.42;48.66
63306;BME280;50735;52.060;1.248;2023-04-08T09:41:47;102416.64;;;10.84;47.58
63306;BME280;50735;52.060;1.248;2023-04-08T09:44:20;102414.48;;;11.28;47.85
63306;BME280;50735;52.060;1.248;2023-04-08T09:46:59;102412.54;;;11.41;46.79
63306;BME280;50735;52.060;1.248;2023-04-08T09:49:37;102412.37;;;11.30;46.35
63306;BME280;50735;52.060;1.248;2023-04-08T09:52:15;102412.57;;;11.53;46.22
63306;BME280;50735;52.060;1.248;2023-04-08T09:54:52;102414.90;;;11.44;46.32
63306;BME280;50735;52.060;1.248;2023-04-08T09:57:30;102418.01;;;10.88;46.90
63306;BME280;50735;52.060;1.248;2023-04-08T10:00:09;102411.92;;;11.39;46.36
63306;BME280;50735;52.060;1.248;2023-04-08T10:02:48;102413.45;;;11.95;45.95
63306;BME280;50735;52.060;1.248;2023-04-08T10:05:25;102415.33;;;11.34;45.80
63306;BME280;50735;52.060;1.248;2023-04-08T10:07:58;102414.40;;;10.79;46.01
63306;BME280;50735;52.060;1.248;2023-04-08T10:10:31;102407.90;;;11.29;45.53
63306;BME280;50735;52.060;1.248;2023-04-08T10:13:04;102408.28;;;11.29;45.22
63306;BME280;50735;52.060;1.248;2023-04-08T10:15:38;102409.43;;;11.38;45.35
63306;BME280;50735;52.060;1.248;2023-04-08T10:18:42;102409.00;;;11.86;45.07
63306;BME280;50735;52.060;1.248;2023-04-08T10:21:46;102409.10;;;11.70;46.10
63306;BME280;50735;52.060;1.248;2023-04-08T10:24:18;102405.08;;;11.22;45.41
63306;BME280;50735;52.060;1.248;2023-04-08T10:26:50;102406.71;;;10.79;46.75
63306;BME280;50735;52.060;1.248;2023-04-08T10:29:30;102399.62;;;10.71;47.08
63306;BME280;50735;52.060;1.248;2023-04-08T10:32:02;102400.31;;;10.08;47.85
63306;BME280;50735;52.060;1.248;2023-04-08T10:34:50;102397.40;;;11.14;46.22
63306;BME280;50735;52.060;1.248;2023-04-08T10:37:23;102402.91;;;11.07;46.33
63306;BME280;50735;52.060;1.248;2023-04-08T10:39:55;102404.50;;;11.25;46.69
63306;BME280;50735;52.060;1.248;2023-04-08T10:42:27;102409.24;;;10.79;46.64
63306;BME280;50735;52.060;1.248;2023-04-08T10:45:00;102406.68;;;10.86;46.43
63306;BME280;50735;52.060;1.248;2023-04-08T10:47:33;102404.43;;;11.40;45.44
63306;BME280;50735;52.060;1.248;2023-04-08T10:50:12;102404.30;;;11.43;44.82
63306;BME280;50735;52.060;1.248;2023-04-08T10:52:46;102399.85;;;12.02;44.83
63306;BME280;50735;52.060;1.248;2023-04-08T10:55:21;102400.76;;;11.86;44.48
63306;BME280;50735;52.060;1.248;2023-04-08T10:57:54;102406.61;;;12.28;44.29
63306;BME280;50735;52.060;1.248;2023-04-08T11:00:32;102403.71;;;12.11;44.13
63306;BME280;50735;52.060;1.248;2023-04-08T11:03:07;102405.72;;;11.51;45.12
63306;BME280;50735;52.060;1.248;2023-04-08T11:05:38;102403.57;;;11.01;46.18
63306;BME280;50735;52.060;1.248;2023-04-08T11:08:10;102403.62;;;11.43;46.01
63306;BME280;50735;52.060;1.248;2023-04-08T11:10:42;102405.73;;;11.77;45.32
63306;BME280;50735;52.060;1.248;2023-04-08T11:13:15;102402.25;;;10.90;45.92
63306;BME280;50735;52.060;1.248;2023-04-08T11:15:46;102408.36;;;10.53;46.99
63306;BME280;50735;52.060;1.248;2023-04-08T11:18:18;102406.62;;;10.58;46.98
63306;BME280;50735;52.060;1.248;2023-04-08T11:20:51;102407.28;;;10.96;45.62
63306;BME280;50735;52.060;1.248;2023-04-08T11:23:24;102407.41;;;11.21;45.35
63306;BME280;50735;52.060;1.248;2023-04-08T11:25:56;102406.48;;;10.98;46.52
63306;BME280;50735;52.060;1.248;2023-04-08T11:28:28;102406.86;;;10.71;46.22
63306;BME280;50735;52.060;1.248;2023-04-08T11:31:00;102407.20;;;10.87;46.31
63306;BME280;50735;52.060;1.248;2023-04-08T11:33:33;102408.48;;;10.76;46.55
63306;BME280;50735;52.060;1.248;2023-04-08T11:36:05;102405.29;;;10.55;47.09
63306;BME280;50735;52.060;1.248;2023-04-08T11:38:38;102408.03;;;10.86;45.80
63306;BME280;50735;52.060;1.248;2023-04-08T11:41:11;102409.07;;;10.92;45.59
63306;BME280;50735;52.060;1.248;2023-04-08T11:43:52;102407.11;;;11.15;45.03
63306;BME280;50735;52.060;1.248;2023-04-08T11:46:24;102408.81;;;11.38;44.88
63306;BME280;50735;52.060;1.248;2023-04-08T11:48:57;102415.48;;;11.12;46.06
63306;BME280;50735;52.060;1.248;2023-04-08T11:51:29;102416.38;;;10.82;47.00
63306;BME280;50735;52.060;1.248;2023-04-08T11:54:04;102417.13;;;10.88;47.17
63306;BME280;50735;52.060;1.248;2023-04-08T11:56:44;102415.24;;;10.90;46.82
63306;BME280;50735;52.060;1.248;2023-04-08T11:59:16;102413.38;;;10.85;47.07
63306;BME280;50735;52.060;1.248;2023-04-08T12:01:48;102410.57;;;10.88;46.57
63306;BME280;50735;52.060;1.248;2023-04-08T12:04:19;102406.44;;;11.09;46.15
63306;BME280;50735;52.060;1.248;2023-04-08T12:06:51;102409.00;;;10.95;46.81
63306;BME280;50735;52.060;1.248;2023-04-08T12:09:23;102401.68;;;11.24;45.64
63306;BME280;50735;52.060;1.248;2023-04-08T12:11:55;102403.37;;;10.48;47.57
63306;BME280;50735;52.060;1.248;2023-04-08T12:14:26;102399.38;;;11.20;46.41
63306;BME280;50735;52.060;1.248;2023-04-08T12:16:58;102398.22;;;11.28;46.00
63306;BME280;50735;52.060;1.248;2023-04-08T12:19:30;102398.09;;;11.50;46.05
63306;BME280;50735;52.060;1.248;2023-04-08T12:22:02;102398.15;;;11.17;46.12
63306;BME280;50735;52.060;1.248;2023-04-08T12:24:33;102398.99;;;11.34;45.29
63306;BME280;50735;52.060;1.248;2023-04-08T12:27:05;102400.72;;;11.71;44.66
63306;BME280;50735;52.060;1.248;2023-04-08T12:29:37;102400.95;;;11.83;45.06
63306;BME280;50735;52.060;1.248;2023-04-08T12:32:09;102399.10;;;11.41;45.17
63306;BME280;50735;52.060;1.248;2023-04-08T12:34:41;102399.65;;;11.33;45.68
63306;BME280;50735;52.060;1.248;2023-04-08T12:37:13;102398.63;;;11.26;46.42
63306;BME280;50735;52.060;1.248;2023-04-08T12:39:45;102401.73;;;11.04;46.81
63306;BME280;50735;52.060;1.248;2023-04-08T12:42:17;102404.62;;;10.84;47.13
63306;BME280;50735;52.060;1.248;2023-04-08T12:44:49;102403.03;;;11.60;46.32
63306;BME280;50735;52.060;1.248;2023-04-08T12:47:21;102404.28;;;11.27;47.00
63306;BME280;50735;52.060;1.248;2023-04-08T12:49:53;102406.08;;;11.22;46.11
63306;BME280;50735;52.060;1.248;2023-04-08T12:52:24;102404.13;;;11.24;46.02
63306;BME280;50735;52.060;1.248;2023-04-08T12:54:56;102403.82;;;11.47;45.19
63306;BME280;50735;52.060;1.248;2023-04-08T12:57:28;102402.32;;;11.57;45.85
63306;BME280;50735;52.060;1.248;2023-04-08T13:00:00;102401.37;;;11.69;45.57
63306;BME280;50735;52.060;1.248;2023-04-08T13:02:32;102398.32;;;11.33;46.36
63306;BME280;50735;52.060;1.248;2023-04-08T13:05:04;102396.08;;;11.07;46.62
63306;BME280;50735;52.060;1.248;2023-04-08T13:07:36;102395.93;;;10.94;47.23
63306;BME280;50735;52.060;1.248;2023-04-08T13:10:08;102393.86;;;10.94;47.26
63306;BME280;50735;52.060;1.248;2023-04-08T13:12:40;102391.48;;;11.18;46.45
63306;BME280;50735;52.060;1.248;2023-04-08T13:15:12;102390.75;;;11.38;46.48
63306;BME280;50735;52.060;1.248;2023-04-08T13:17:44;102390.08;;;11.35;46.45
63306;BME280;50735;52.060;1.248;2023-04-08T13:20:16;102390.98;;;11.02;46.82
63306;BME280;50735;52.060;1.248;2023-04-08T13:22:48;102395.68;;;10.35;47.45
63306;BME280;50735;52.060;1.248;2023-04-08T13:25:20;102394.02;;;10.38;48.10
63306;BME280;50735;52.060;1.248;2023-04-08T13:27:52;102388.80;;;11.14;47.05